Time;durP1;ratioP1;P1;durP2;ratioP2;P2;SDS_P1;SDS_P2;PMS_P1;PMS_P2;Temp;Humidity;BMP_temperature;BMP_pressure;BME280_temperature;BME280_humidity;BME280_pressure;Samples;Min_cycle;Max_cycle;Signal;HPM_P1;HPM_P2
2022/06/27 00:01:13;;;;;;;14.15;10.32;;;25.60;61.90;;;;;;4928582;29;20040;-72
2022/06/27 00:03:42;;;;;;;15.13;10.77;;;25.60;61.90;;;;;;4925428;29;20115;-72
2022/06/27 00:06:09;;;;;;;12.90;9.85;;;25.60;61.90;;;;;;4961943;23;20075;-69
2022/06/27 00:08:35;;;;;;;12.80;9.70;;;25.60;61.80;;;;;;4963769;28;20031;-70
2022/06/27 00:11:02;;;;;;;13.40;9.73;;;25.60;61.80;;;;;;4955840;28;20057;-70
2022/06/27 00:13:28;;;;;;;14.82;9.93;;;25.60;61.80;;;;;;4972132;28;20387;-71
2022/06/27 00:15:54;;;;;;;12.45;9.23;;;25.60;61.80;;;;;;4972439;28;20078;-70
2022/06/27 00:18:19;;;;;;;17.65;9.93;;;25.60;61.70;;;;;;4972940;28;20058;-70
2022/06/27 00:20:45;;;;;;;13.65;9.60;;;25.60;61.70;;;;;;4973245;28;20038;-71
2022/06/27 00:23:11;;;;;;;11.20;8.93;;;25.60;61.60;;;;;;4972472;28;20030;-70
2022/06/27 00:25:37;;;;;;;13.73;9.13;;;25.60;61.70;;;;;;4970340;28;20114;-70
2022/06/27 00:28:03;;;;;;;12.07;8.80;;;25.60;61.60;;;;;;4972504;28;20065;-70
2022/06/27 00:30:29;;;;;;;11.93;9.13;;;25.60;61.60;;;;;;4979908;28;20035;-70
2022/06/27 00:32:54;;;;;;;15.60;9.55;;;25.60;61.60;;;;;;4987647;28;20345;-70
2022/06/27 00:35:20;;;;;;;11.13;8.57;;;25.60;61.60;;;;;;4987113;28;20026;-70
2022/06/27 00:37:46;;;;;;;11.98;8.60;;;25.60;61.60;;;;;;4967768;28;20435;-70
2022/06/27 00:40:12;;;;;;;12.38;8.80;;;25.60;61.50;;;;;;4961056;28;20045;-71
2022/06/27 00:42:38;;;;;;;11.45;8.82;;;25.60;61.50;;;;;;4979955;28;20386;-70
2022/06/27 00:45:05;;;;;;;12.25;8.30;;;25.50;61.50;;;;;;4963531;28;20130;-70
2022/06/27 00:47:30;;;;;;;10.55;7.85;;;25.60;61.60;;;;;;4986686;28;20101;-70
2022/06/27 00:49:56;;;;;;;12.85;9.05;;;25.50;61.60;;;;;;4970838;28;20483;-70
2022/06/27 00:52:22;;;;;;;11.00;8.27;;;25.60;61.50;;;;;;4983219;28;20502;-70
2022/06/27 00:54:48;;;;;;;13.20;8.80;;;25.50;61.50;;;;;;4976316;28;20034;-70
2022/06/27 00:57:16;;;;;;;12.80;8.35;;;25.60;61.50;;;;;;4975544;28;20023;-70
2022/06/27 00:59:43;;;;;;;10.88;8.57;;;25.50;61.50;;;;;;4984939;28;20037;-70
2022/06/27 01:02:09;;;;;;;10.48;8.77;;;25.60;61.50;;;;;;4991102;28;20038;-71
2022/06/27 01:04:36;;;;;;;10.65;8.10;;;25.60;61.50;;;;;;4976938;28;20498;-71
2022/06/27 01:07:04;;;;;;;12.35;8.75;;;25.60;61.60;;;;;;4973205;28;20031;-71
2022/06/27 01:09:30;;;;;;;11.18;8.55;;;25.50;61.50;;;;;;4974494;28;20328;-71
2022/06/27 01:11:56;;;;;;;12.05;8.57;;;25.50;61.50;;;;;;4983363;28;20031;-71
2022/06/27 01:14:22;;;;;;;14.57;9.43;;;25.50;61.50;;;;;;4974873;28;20488;-71
2022/06/27 01:16:48;;;;;;;11.38;8.50;;;25.50;61.50;;;;;;4957427;28;20027;-70
2022/06/27 01:19:16;;;;;;;10.45;8.60;;;25.50;61.50;;;;;;4973950;28;20505;-70
2022/06/27 01:21:47;;;;;;;12.45;8.57;;;25.50;61.50;;;;;;4975213;28;20030;-70
2022/06/27 01:24:13;;;;;;;11.82;8.48;;;25.50;61.50;;;;;;4975702;28;20077;-71
2022/06/27 01:26:42;;;;;;;9.70;8.52;;;25.50;61.50;;;;;;4967185;28;20034;-71
2022/06/27 01:29:08;;;;;;;12.60;8.77;;;25.50;61.50;;;;;;4974080;28;20504;-70
2022/06/27 01:31:38;;;;;;;10.95;8.25;;;25.50;61.50;;;;;;4967236;28;20084;-70
2022/06/27 01:34:05;;;;;;;10.85;8.07;;;25.50;61.50;;;;;;4974116;28;20113;-70
2022/06/27 01:36:43;;;;;;;11.55;8.35;;;25.50;61.50;;;;;;4970537;28;20038;-71
2022/06/27 01:39:17;;;;;;;10.18;8.20;;;25.50;61.50;;;;;;4964306;28;20550;-70
2022/06/27 01:41:51;;;;;;;13.23;8.38;;;25.50;61.50;;;;;;4965983;28;20479;-70
2022/06/27 01:44:19;;;;;;;12.23;8.40;;;25.50;61.50;;;;;;4973720;28;20089;-70
2022/06/27 01:47:00;;;;;;;10.02;8.23;;;25.50;61.40;;;;;;4974309;28;20030;-70
2022/06/27 01:49:28;;;;;;;12.90;8.82;;;25.60;61.40;;;;;;4990892;28;20070;-71
2022/06/27 01:51:56;;;;;;;11.88;8.25;;;25.50;61.40;;;;;;4973751;28;20037;-70
2022/06/27 01:54:23;;;;;;;11.93;8.88;;;25.60;61.40;;;;;;4990307;28;20070;-70
2022/06/27 01:56:51;;;;;;;12.13;8.73;;;25.50;61.40;;;;;;4972918;28;20027;-70
2022/06/27 01:59:23;;;;;;;11.57;8.63;;;25.50;61.30;;;;;;4990474;28;20109;-70
2022/06/27 02:01:55;;;;;;;10.60;8.32;;;25.50;61.40;;;;;;4957613;28;20456;-70
2022/06/27 02:04:21;;;;;;;9.93;8.30;;;25.50;61.40;;;;;;4957799;28;20035;-70
2022/06/27 02:06:47;;;;;;;10.43;8.95;;;25.50;61.40;;;;;;4957173;28;20399;-70
2022/06/27 02:09:15;;;;;;;11.32;8.43;;;25.50;61.30;;;;;;4973186;28;20031;-71
2022/06/27 02:11:43;;;;;;;12.68;8.85;;;25.50;61.30;;;;;;4974352;28;20034;-70
2022/06/27 02:14:13;;;;;;;13.55;9.02;;;25.50;61.40;;;;;;4967631;28;20035;-70
2022/06/27 02:16:44;;;;;;;9.57;8.43;;;25.50;61.40;;;;;;4973784;28;20030;-70
2022/06/27 02:19:19;;;;;;;13.65;8.70;;;25.50;61.40;;;;;;4973545;28;20223;-70
2022/06/27 02:21:46;;;;;;;12.15;8.48;;;25.50;61.30;;;;;;4972896;28;20027;-70
2022/06/27 02:24:12;;;;;;;15.20;8.43;;;25.50;61.30;;;;;;4982365;28;20039;-70
2022/06/27 02:26:40;;;;;;;10.65;8.80;;;25.50;61.40;;;;;;4973563;28;20073;-71
2022/06/27 02:29:06;;;;;;;10.43;8.70;;;25.50;61.30;;;;;;4974761;28;20162;-70
2022/06/27 02:31:32;;;;;;;10.50;8.55;;;25.50;61.30;;;;;;4973664;28;20030;-71
2022/06/27 02:33:58;;;;;;;11.23;8.98;;;25.50;61.30;;;;;;4974073;28;20438;-70
2022/06/27 02:36:29;;;;;;;10.73;8.20;;;25.50;61.30;;;;;;4973487;28;20057;-70
2022/06/27 02:38:57;;;;;;;13.40;8.55;;;25.50;61.40;;;;;;4970268;28;20063;-70
2022/06/27 02:41:27;;;;;;;11.18;8.77;;;25.50;61.30;;;;;;4984286;28;20157;-71
2022/06/27 02:44:00;;;;;;;15.57;9.35;;;25.50;61.40;;;;;;4973899;28;20030;-70
2022/06/27 02:46:27;;;;;;;11.52;8.65;;;25.50;61.30;;;;;;4972139;28;20041;-71
2022/06/27 02:48:53;;;;;;;11.55;9.13;;;25.50;61.30;;;;;;4990143;28;20037;-71
2022/06/27 02:51:22;;;;;;;11.07;8.95;;;25.50;61.30;;;;;;4972847;28;20034;-71
2022/06/27 02:54:11;;;;;;;12.43;9.37;;;25.50;61.30;;;;;;4973791;28;20022;-70
2022/06/27 02:56:57;;;;;;;12.38;9.57;;;25.50;61.20;;;;;;4964449;28;20061;-71
2022/06/27 02:59:27;;;;;;;11.15;9.20;;;25.50;61.20;;;;;;4973090;28;20368;-71
2022/06/27 03:01:57;;;;;;;13.15;9.68;;;25.50;61.20;;;;;;4972765;28;20035;-71
2022/06/27 03:04:38;;;;;;;11.77;9.95;;;25.50;61.20;;;;;;4986509;28;20027;-71
2022/06/27 03:07:04;;;;;;;11.07;9.57;;;25.50;61.20;;;;;;4984987;28;20042;-70
2022/06/27 03:09:31;;;;;;;11.73;10.07;;;25.50;61.30;;;;;;4972971;28;20039;-70
2022/06/27 03:11:56;;;;;;;11.65;9.65;;;25.50;61.20;;;;;;4972375;28;20510;-71
2022/06/27 03:14:23;;;;;;;12.18;9.98;;;25.50;61.20;;;;;;4988993;28;20038;-70
2022/06/27 03:16:48;;;;;;;11.65;9.63;;;25.50;61.20;;;;;;4985678;28;20031;-70
2022/06/27 03:19:14;;;;;;;12.18;9.40;;;25.50;61.10;;;;;;4989231;28;20099;-70
2022/06/27 03:21:43;;;;;;;11.80;9.77;;;25.50;61.10;;;;;;4971687;28;20026;-70
2022/06/27 03:24:09;;;;;;;12.50;9.45;;;25.50;61.10;;;;;;4957054;28;20039;-70
2022/06/27 03:26:35;;;;;;;14.38;9.65;;;25.50;61.20;;;;;;4971822;28;20023;-70
2022/06/27 03:29:03;;;;;;;14.20;10.27;;;25.50;61.20;;;;;;4989028;28;20102;-70
2022/06/27 03:31:30;;;;;;;13.27;9.82;;;25.50;61.20;;;;;;4988447;28;20393;-70
2022/06/27 03:33:56;;;;;;;11.45;9.50;;;25.50;61.20;;;;;;4956889;28;20034;-71
2022/06/27 03:36:32;;;;;;;10.45;9.30;;;25.50;61.20;;;;;;4971588;28;20123;-70
2022/06/27 03:39:00;;;;;;;13.27;9.75;;;25.50;61.20;;;;;;4972775;28;20019;-70
2022/06/27 03:41:26;;;;;;;10.50;9.38;;;25.50;61.20;;;;;;4956030;28;20073;-74
2022/06/27 03:43:52;;;;;;;12.63;10.18;;;25.50;61.10;;;;;;4971620;28;20435;-73
2022/06/27 03:46:19;;;;;;;12.00;9.68;;;25.50;61.40;;;;;;4971090;28;20026;-73
2022/06/27 03:51:52;;;;;;;12.30;9.60;;;25.50;61.00;;;;;;4983187;28;20526;-73
2022/06/27 03:54:19;;;;;;;16.63;9.57;;;25.50;61.00;;;;;;4962509;28;20093;-72
2022/06/27 03:56:45;;;;;;;11.73;9.55;;;25.50;61.10;;;;;;4955469;28;20023;-73
2022/06/27 03:59:12;;;;;;;12.18;9.68;;;25.50;61.20;;;;;;4972325;28;20049;-72
2022/06/27 04:01:38;;;;;;;12.15;9.18;;;25.50;61.20;;;;;;4986958;28;20034;-73
2022/06/27 04:04:05;;;;;;;11.35;9.63;;;25.50;61.20;;;;;;4980303;28;20073;-73
2022/06/27 04:06:32;;;;;;;13.45;9.48;;;25.50;61.20;;;;;;4970902;28;20085;-73
2022/06/27 04:08:59;;;;;;;13.05;9.63;;;25.50;61.40;;;;;;4972404;28;20031;-73
2022/06/27 04:11:25;;;;;;;12.18;9.70;;;25.50;61.30;;;;;;4971026;28;20031;-72
2022/06/27 04:13:54;;;;;;;11.57;9.73;;;25.50;61.30;;;;;;4979340;28;20023;-73
2022/06/27 04:16:39;;;;;;;13.40;9.57;;;25.50;61.30;;;;;;4971939;28;20026;-73
2022/06/27 04:19:40;;;;;;;11.20;10.00;;;25.50;61.40;;;;;;4972728;28;20038;-73
2022/06/27 04:22:12;;;;;;;12.77;9.65;;;25.50;61.40;;;;;;4973406;28;20039;-73
2022/06/27 04:25:07;;;;;;;11.30;9.18;;;25.50;61.60;;;;;;4971254;28;20035;-73
2022/06/27 04:27:48;;;;;;;13.02;10.52;;;25.50;61.50;;;;;;4965626;28;20043;-73
2022/06/27 04:30:17;;;;;;;11.32;9.88;;;25.50;61.50;;;;;;4966500;28;20439;-73
2022/06/27 04:32:45;;;;;;;12.70;10.13;;;25.50;61.40;;;;;;4965884;28;20026;-74
2022/06/27 04:35:12;;;;;;;12.20;9.93;;;25.50;61.40;;;;;;4954194;28;20061;-73
2022/06/27 04:37:43;;;;;;;12.20;9.77;;;25.50;61.30;;;;;;4983713;28;20037;-73
2022/06/27 04:40:37;;;;;;;13.77;10.02;;;25.50;61.30;;;;;;4971051;28;20035;-73
2022/06/27 04:43:02;;;;;;;13.27;9.98;;;25.50;61.40;;;;;;4987386;28;20079;-73
2022/06/27 04:45:29;;;;;;;12.05;10.10;;;25.50;61.40;;;;;;4970989;28;20110;-73
2022/06/27 04:48:07;;;;;;;13.57;10.43;;;25.50;61.50;;;;;;4971687;28;20031;-73
2022/06/27 04:50:34;;;;;;;14.38;10.45;;;25.60;61.60;;;;;;4955147;28;20449;-73
2022/06/27 04:53:01;;;;;;;12.50;10.23;;;25.60;61.50;;;;;;4971805;28;20158;-73
2022/06/27 04:55:28;;;;;;;12.98;9.68;;;25.60;61.60;;;;;;4955449;28;20031;-73
2022/06/27 04:57:55;;;;;;;11.68;8.90;;;25.60;61.60;;;;;;4969987;28;20035;-73
2022/06/27 05:00:20;;;;;;;12.68;10.52;;;25.50;61.50;;;;;;4970598;28;20023;-71
2022/06/27 05:03:23;;;;;;;11.65;9.63;;;25.50;61.50;;;;;;4951824;28;20035;-73
2022/06/27 05:05:59;;;;;;;12.00;10.23;;;25.60;61.60;;;;;;4963093;28;20046;-73
2022/06/27 05:08:25;;;;;;;13.02;9.85;;;25.60;61.60;;;;;;4987700;28;20027;-72
2022/06/27 05:10:55;;;;;;;12.82;10.20;;;25.60;61.50;;;;;;4970299;28;20058;-74
2022/06/27 05:13:21;;;;;;;10.80;9.50;;;25.60;61.80;;;;;;4974229;28;20487;-74
2022/06/27 05:15:47;;;;;;;11.02;9.75;;;25.60;61.70;;;;;;4970221;28;20027;-74
2022/06/27 05:18:15;;;;;;;11.80;9.38;;;25.60;61.60;;;;;;4971455;28;20123;-74
2022/06/27 05:20:42;;;;;;;13.35;9.43;;;25.60;61.80;;;;;;4982766;28;20543;-73
2022/06/27 05:23:09;;;;;;;12.05;9.45;;;25.60;61.80;;;;;;4984316;28;20027;-73
2022/06/27 05:25:35;;;;;;;10.38;8.95;;;25.60;62.00;;;;;;4969514;28;20499;-73
2022/06/27 05:28:03;;;;;;;11.95;9.50;;;25.60;61.90;;;;;;4970821;28;20058;-73
2022/06/27 05:30:30;;;;;;;12.73;9.80;;;25.60;62.10;;;;;;4962095;28;20451;-73
2022/06/27 05:32:56;;;;;;;13.57;9.50;;;25.60;62.20;;;;;;4970259;28;20047;-73
2022/06/27 05:35:22;;;;;;;13.45;9.15;;;25.60;62.20;;;;;;4977354;28;20150;-73
2022/06/27 05:37:50;;;;;;;11.40;9.38;;;25.60;62.10;;;;;;4969386;28;20034;-73
2022/06/27 05:40:16;;;;;;;13.13;9.75;;;25.60;62.50;;;;;;4974125;28;20102;-73
2022/06/27 05:42:42;;;;;;;11.70;9.50;;;25.70;62.50;;;;;;4973787;28;20531;-73
2022/06/27 05:45:10;;;;;;;12.65;10.13;;;25.60;62.50;;;;;;4970847;28;20031;-73
2022/06/27 05:47:59;;;;;;;13.52;9.60;;;25.70;62.50;;;;;;4974613;28;20050;-73
2022/06/27 05:50:25;;;;;;;13.48;9.32;;;25.70;62.60;;;;;;4981610;28;20114;-73
2022/06/27 05:52:53;;;;;;;12.88;9.20;;;25.70;62.60;;;;;;4970259;28;20138;-73
2022/06/27 05:55:21;;;;;;;11.45;9.52;;;25.70;62.70;;;;;;4988798;28;20549;-73
2022/06/27 05:57:47;;;;;;;11.95;9.60;;;25.70;62.70;;;;;;4972732;28;20069;-73
2022/06/27 06:00:15;;;;;;;13.55;9.13;;;25.70;62.60;;;;;;4958144;28;20364;-73
2022/06/27 06:02:41;;;;;;;13.18;9.95;;;25.70;62.60;;;;;;4990216;28;20117;-73
2022/06/27 06:05:11;;;;;;;11.40;9.32;;;25.70;62.60;;;;;;4963501;28;20538;-73
2022/06/27 06:07:38;;;;;;;13.02;9.50;;;25.70;62.70;;;;;;5002363;23;20071;-72
2022/06/27 06:10:05;;;;;;;12.32;9.38;;;25.70;62.60;;;;;;4974330;28;20301;-72
2022/06/27 06:12:32;;;;;;;14.60;9.50;;;25.70;62.60;;;;;;4958015;28;20475;-72
2022/06/27 06:15:04;;;;;;;11.63;9.45;;;25.70;62.80;;;;;;4949572;28;20034;-72
2022/06/27 06:17:33;;;;;;;15.02;9.88;;;25.70;62.90;;;;;;4974113;28;20022;-72
2022/06/27 06:19:59;;;;;;;12.90;9.40;;;25.70;63.00;;;;;;4986320;28;20039;-72
2022/06/27 06:22:25;;;;;;;12.23;10.25;;;25.70;63.00;;;;;;4990359;28;20031;-72
2022/06/27 06:24:51;;;;;;;13.82;9.85;;;25.70;63.00;;;;;;4981508;28;20082;-72
2022/06/27 06:27:18;;;;;;;12.90;9.45;;;25.70;63.00;;;;;;4982827;28;20376;-72
2022/06/27 06:29:44;;;;;;;12.25;9.50;;;25.70;62.60;;;;;;4966078;28;20483;-73
2022/06/27 06:32:12;;;;;;;12.20;9.05;;;25.70;62.80;;;;;;4983265;28;20030;-73
2022/06/27 06:34:40;;;;;;;16.98;9.15;;;25.70;62.70;;;;;;4950092;28;20034;-72
2022/06/27 06:37:06;;;;;;;12.27;9.40;;;25.70;63.10;;;;;;4968595;28;20022;-73
2022/06/27 06:39:34;;;;;;;13.73;9.32;;;25.80;63.10;;;;;;4980655;28;20216;-73
2022/06/27 06:41:59;;;;;;;11.70;9.30;;;25.70;62.90;;;;;;4981356;28;20510;-73
2022/06/27 06:44:31;;;;;;;13.27;9.32;;;25.70;63.00;;;;;;4970615;28;20035;-73
2022/06/27 06:47:14;;;;;;;11.70;9.38;;;25.70;63.00;;;;;;4958534;28;20027;-73
2022/06/27 06:49:48;;;;;;;13.63;10.30;;;25.80;63.20;;;;;;4973452;28;20073;-73
2022/06/27 06:52:13;;;;;;;11.93;9.68;;;25.80;63.30;;;;;;4973981;28;20027;-73
2022/06/27 06:54:43;;;;;;;13.68;9.90;;;25.80;63.20;;;;;;4975054;28;20034;-72
2022/06/27 06:57:10;;;;;;;19.40;10.75;;;25.80;63.60;;;;;;4979100;28;20769;-72
2022/06/27 06:59:36;;;;;;;13.10;9.32;;;25.80;63.60;;;;;;4972979;28;20027;-73
2022/06/27 07:02:03;;;;;;;14.05;9.73;;;25.80;63.40;;;;;;4980736;28;20063;-73
2022/06/27 07:04:29;;;;;;;19.30;11.32;;;25.80;63.30;;;;;;4973368;28;20062;-72
2022/06/27 07:06:56;;;;;;;13.02;9.95;;;25.90;63.60;;;;;;4969548;28;20123;-72
2022/06/27 07:09:21;;;;;;;15.73;9.48;;;25.90;63.80;;;;;;4973548;28;20548;-72
2022/06/27 07:11:47;;;;;;;13.68;10.25;;;25.90;63.90;;;;;;4972389;28;20128;-72
2022/06/27 07:14:15;;;;;;;13.75;9.73;;;25.90;63.90;;;;;;4965431;28;20030;-72
2022/06/27 07:16:42;;;;;;;14.27;10.13;;;25.90;63.90;;;;;;4973106;28;20026;-73
2022/06/27 07:19:08;;;;;;;14.85;10.98;;;25.90;63.90;;;;;;4974284;28;20404;-72
2022/06/27 07:21:35;;;;;;;20.00;11.32;;;25.90;64.00;;;;;;4962269;28;20462;-72
2022/06/27 07:24:02;;;;;;;13.57;10.60;;;26.00;63.80;;;;;;4980898;28;20491;-73
2022/06/27 07:26:31;;;;;;;29.10;22.00;;;25.90;63.90;;;;;;4970378;28;20110;-72
2022/06/27 07:28:58;;;;;;;33.92;30.13;;;26.00;63.80;;;;;;4969273;28;20037;-72
2022/06/27 07:31:30;;;;;;;23.05;19.92;;;26.00;63.50;;;;;;4971237;28;20518;-71
2022/06/27 07:33:56;;;;;;;22.33;16.88;;;26.00;63.10;;;;;;4972474;28;20462;-72
2022/06/27 07:36:25;;;;;;;20.10;15.48;;;26.00;62.90;;;;;;4986946;28;20097;-74
2022/06/27 07:38:52;;;;;;;17.15;13.68;;;26.10;62.80;;;;;;4972761;28;20023;-73
2022/06/27 07:41:22;;;;;;;15.65;13.18;;;26.00;62.50;;;;;;4973706;28;20026;-73
2022/06/27 07:43:50;;;;;;;15.15;12.23;;;26.10;62.50;;;;;;4972756;28;20497;-72
2022/06/27 07:46:17;;;;;;;15.10;11.32;;;26.20;62.20;;;;;;4971058;28;20123;-74
2022/06/27 07:48:44;;;;;;;16.77;11.82;;;26.10;62.00;;;;;;4966315;28;20023;-73
2022/06/27 07:51:14;;;;;;;16.50;11.27;;;26.20;62.00;;;;;;4979546;28;20023;-74
2022/06/27 07:53:41;;;;;;;15.43;12.43;;;26.20;62.30;;;;;;4965504;28;20074;-74
2022/06/27 07:56:07;;;;;;;18.98;11.73;;;26.10;62.30;;;;;;4984718;28;20475;-74
2022/06/27 07:58:35;;;;;;;19.00;11.57;;;26.10;62.50;;;;;;4988516;28;20033;-75
2022/06/27 08:01:23;;;;;;;16.02;11.70;;;26.00;62.60;;;;;;4973566;28;20035;-75
2022/06/27 08:03:49;;;;;;;17.25;10.57;;;26.00;62.70;;;;;;4973623;28;20237;-75
2022/06/27 08:06:19;;;;;;;21.58;11.68;;;26.00;62.90;;;;;;4973005;28;20038;-75
2022/06/27 08:08:51;;;;;;;19.42;11.68;;;26.00;62.90;;;;;;4973468;28;20038;-75
2022/06/27 08:11:19;;;;;;;18.42;12.18;;;25.90;62.90;;;;;;4973654;28;20434;-75
2022/06/27 08:13:47;;;;;;;20.17;11.70;;;26.00;63.00;;;;;;4973632;28;20022;-76
2022/06/27 08:16:14;;;;;;;13.68;10.73;;;26.00;63.00;;;;;;4973060;28;20174;-75
2022/06/27 08:18:44;;;;;;;15.48;11.18;;;26.00;63.00;;;;;;4973276;28;20610;-75
2022/06/27 08:21:10;;;;;;;19.60;11.38;;;26.00;63.10;;;;;;4973222;28;20027;-75
2022/06/27 08:23:38;;;;;;;16.67;11.57;;;26.00;63.10;;;;;;4973222;28;20034;-75
2022/06/27 08:26:08;;;;;;;18.25;11.73;;;26.00;63.10;;;;;;4972825;28;20113;-76
2022/06/27 08:28:37;;;;;;;19.67;11.30;;;26.00;63.10;;;;;;4973255;28;20505;-75
2022/06/27 08:31:05;;;;;;;16.85;11.43;;;26.00;63.10;;;;;;4972039;28;20431;-75
2022/06/27 08:33:31;;;;;;;15.82;11.77;;;25.90;63.00;;;;;;4973108;28;20380;-75
2022/06/27 08:35:59;;;;;;;14.55;11.30;;;26.00;63.20;;;;;;4972713;28;20058;-74
2022/06/27 08:38:25;;;;;;;18.70;11.13;;;25.90;63.10;;;;;;4988075;28;20178;-75
2022/06/27 08:40:53;;;;;;;15.30;10.65;;;26.00;63.20;;;;;;4988048;28;20031;-75
2022/06/27 08:43:19;;;;;;;13.48;10.18;;;25.90;63.10;;;;;;4972001;28;20041;-76
2022/06/27 08:45:47;;;;;;;17.55;11.32;;;25.90;63.20;;;;;;4971441;28;20030;-75
2022/06/27 08:48:13;;;;;;;16.13;11.40;;;26.00;63.30;;;;;;4971878;28;20147;-75
2022/06/27 08:50:39;;;;;;;19.02;10.98;;;26.00;63.30;;;;;;4972888;28;20031;-75
2022/06/27 08:53:05;;;;;;;22.25;11.63;;;26.00;63.30;;;;;;4972908;28;20027;-75
2022/06/27 08:55:33;;;;;;;18.35;11.80;;;26.00;63.40;;;;;;4987877;28;20035;-75
2022/06/27 08:58:10;;;;;;;18.52;11.57;;;26.00;63.70;;;;;;4972738;28;20394;-75
2022/06/27 09:00:45;;;;;;;17.40;10.70;;;26.00;63.90;;;;;;4972829;28;20454;-74
2022/06/27 09:03:21;;;;;;;14.85;10.73;;;26.00;63.80;;;;;;4972757;28;20030;-74
2022/06/27 09:05:57;;;;;;;14.75;10.80;;;26.00;63.70;;;;;;4972251;28;20495;-74
2022/06/27 09:08:26;;;;;;;23.88;11.05;;;25.90;63.60;;;;;;4971629;28;20089;-75
2022/06/27 09:10:52;;;;;;;15.23;10.67;;;25.90;63.60;;;;;;4988371;28;20027;-75
2022/06/27 09:13:19;;;;;;;15.88;10.82;;;26.00;63.60;;;;;;4976601;28;20073;-74
2022/06/27 09:15:59;;;;;;;16.60;11.20;;;26.00;63.60;;;;;;4991112;28;20031;-74
2022/06/27 09:18:27;;;;;;;16.70;9.80;;;26.00;63.50;;;;;;4976596;28;20035;-74
2022/06/27 09:20:58;;;;;;;15.80;10.65;;;26.00;63.40;;;;;;4976694;28;20093;-74
2022/06/27 09:23:53;;;;;;;18.58;10.65;;;26.00;63.50;;;;;;4976526;28;20039;-74
2022/06/27 09:26:29;;;;;;;18.30;10.95;;;26.00;63.60;;;;;;4976134;28;20030;-74
2022/06/27 09:29:08;;;;;;;15.25;10.05;;;26.00;63.60;;;;;;4976405;28;20129;-74
2022/06/27 09:31:39;;;;;;;15.52;10.65;;;26.00;63.50;;;;;;4972413;28;20039;-74
2022/06/27 09:34:09;;;;;;;15.10;10.57;;;26.00;63.50;;;;;;4976603;28;20380;-75
2022/06/27 09:36:44;;;;;;;15.77;10.55;;;26.10;63.60;;;;;;4975881;28;20035;-75
2022/06/27 09:39:32;;;;;;;18.27;9.73;;;26.00;63.50;;;;;;4976182;28;20109;-75
2022/06/27 09:42:03;;;;;;;14.88;10.07;;;26.10;63.60;;;;;;4976129;28;20069;-76
2022/06/27 09:44:35;;;;;;;16.48;10.07;;;26.00;63.50;;;;;;4991123;28;20130;-75
2022/06/27 09:47:15;;;;;;;16.38;10.65;;;26.10;63.50;;;;;;4990696;28;20034;-75
2022/06/27 09:49:43;;;;;;;14.05;9.85;;;26.00;63.50;;;;;;4976151;28;20035;-75
2022/06/27 09:52:11;;;;;;;18.90;10.35;;;26.00;63.60;;;;;;4976530;28;20105;-75
2022/06/27 09:54:40;;;;;;;19.20;10.07;;;26.00;63.70;;;;;;4990822;28;20037;-75
2022/06/27 09:57:08;;;;;;;15.05;9.80;;;26.10;63.80;;;;;;4975709;28;20419;-75
2022/06/27 09:59:35;;;;;;;17.10;9.85;;;26.00;63.70;;;;;;4975915;28;20030;-75
2022/06/27 10:02:01;;;;;;;16.10;10.25;;;26.10;63.70;;;;;;4975809;28;20093;-75
2022/06/27 10:04:29;;;;;;;18.70;9.90;;;26.10;63.70;;;;;;4975767;28;20089;-75
2022/06/27 10:06:58;;;;;;;19.75;10.68;;;26.10;63.70;;;;;;4975173;28;20078;-75
2022/06/27 10:09:25;;;;;;;13.35;9.73;;;26.10;63.90;;;;;;4975647;28;20027;-75
2022/06/27 10:12:36;;;;;;;13.70;10.02;;;26.10;63.80;;;;;;4974530;28;20081;-75
2022/06/27 10:15:10;;;;;;;14.65;10.75;;;26.00;63.80;;;;;;4965700;28;20019;-75
2022/06/27 10:17:38;;;;;;;14.00;9.60;;;26.10;63.80;;;;;;4964269;28;20023;-75
2022/06/27 10:20:20;;;;;;;14.50;9.23;;;26.00;63.80;;;;;;4964252;28;20023;-75
2022/06/27 10:23:08;;;;;;;13.27;8.80;;;26.00;63.80;;;;;;4963530;28;20110;-75
2022/06/27 10:25:35;;;;;;;18.15;10.75;;;26.10;63.60;;;;;;4964749;28;20030;-75
2022/06/27 10:28:13;;;;;;;15.82;10.45;;;26.00;63.80;;;;;;4964867;28;20024;-75
2022/06/27 10:30:58;;;;;;;18.90;9.33;;;26.00;63.80;;;;;;4981099;28;20095;-75
2022/06/27 10:33:27;;;;;;;15.13;10.20;;;26.10;63.80;;;;;;4975175;28;20273;-74
2022/06/27 10:36:01;;;;;;;17.48;9.55;;;26.10;63.80;;;;;;4989787;28;20034;-74
2022/06/27 10:38:28;;;;;;;15.27;9.70;;;26.00;63.80;;;;;;4975717;28;20038;-74
2022/06/27 10:40:55;;;;;;;15.60;9.98;;;26.10;63.80;;;;;;4990142;28;20034;-74
2022/06/27 10:43:40;;;;;;;16.23;10.48;;;26.10;63.70;;;;;;4975018;28;20030;-74
2022/06/27 10:46:09;;;;;;;16.67;10.38;;;26.10;64.20;;;;;;4989552;28;20399;-74
2022/06/27 10:48:36;;;;;;;14.87;11.00;;;26.10;64.50;;;;;;4989904;28;20070;-73
2022/06/27 10:51:22;;;;;;;16.40;11.48;;;26.20;64.30;;;;;;4974822;28;20395;-74
2022/06/27 10:54:11;;;;;;;16.45;12.05;;;26.20;65.10;;;;;;4975165;28;20045;-73
2022/06/27 10:56:44;;;;;;;16.80;11.90;;;26.20;65.30;;;;;;4969179;28;20105;-73
2022/06/27 10:59:13;;;;;;;15.35;11.13;;;26.30;65.20;;;;;;4974827;28;20543;-73
2022/06/27 11:01:41;;;;;;;27.13;11.15;;;26.30;64.40;;;;;;4973682;28;20292;-72
2022/06/27 11:04:07;;;;;;;19.63;9.70;;;26.30;63.60;;;;;;4974579;28;20027;-73
2022/06/27 11:06:32;;;;;;;23.98;10.15;;;26.30;63.10;;;;;;4974079;28;20041;-73
2022/06/27 11:08:58;;;;;;;35.42;10.60;;;26.40;63.50;;;;;;4974468;28;20522;-72
2022/06/27 11:11:27;;;;;;;21.85;11.13;;;26.30;63.30;;;;;;4974705;28;20030;-73
2022/06/27 11:13:58;;;;;;;20.45;11.13;;;26.40;64.00;;;;;;4974472;28;20026;-73
2022/06/27 11:16:30;;;;;;;27.20;10.15;;;26.40;64.00;;;;;;4974043;28;20071;-72
2022/06/27 11:19:02;;;;;;;23.75;10.63;;;26.40;64.10;;;;;;4974440;28;20053;-73
2022/06/27 11:21:29;;;;;;;21.98;11.07;;;26.30;64.20;;;;;;4989327;28;20380;-73
2022/06/27 11:23:58;;;;;;;28.77;12.00;;;26.30;64.30;;;;;;4972939;28;20427;-73
2022/06/27 11:26:35;;;;;;;32.58;11.30;;;26.30;64.40;;;;;;4973840;28;20127;-73
2022/06/27 11:32:01;;;;;;;26.90;11.05;;;26.30;64.50;;;;;;4974463;28;20030;-73
2022/06/27 11:34:29;;;;;;;23.55;12.10;;;26.30;64.60;;;;;;4973592;28;20027;-73
2022/06/27 11:36:56;;;;;;;28.00;11.80;;;26.30;64.50;;;;;;4973598;28;20027;-73
2022/06/27 11:39:31;;;;;;;22.42;12.90;;;26.30;64.60;;;;;;4972926;28;20284;-73
2022/06/27 11:42:01;;;;;;;24.73;11.50;;;26.30;64.50;;;;;;4974198;28;20388;-73
2022/06/27 11:44:26;;;;;;;;;;;26.30;64.50;;;;;;4989448;28;20062;-73
2022/06/27 11:47:04;;;;;;;23.30;10.75;;;26.30;64.50;;;;;;4973649;28;20338;-72
2022/06/27 11:49:33;;;;;;;31.95;12.02;;;26.30;64.50;;;;;;4973822;28;20086;-65
2022/06/27 11:52:11;;;;;;;21.63;11.27;;;26.40;64.40;;;;;;4973820;28;20105;-72
2022/06/27 11:54:43;;;;;;;27.02;11.38;;;26.40;63.60;;;;;;4972732;28;20038;-72
2022/06/27 11:57:27;;;;;;;27.20;12.27;;;26.40;63.50;;;;;;4963740;28;20472;-73
2022/06/27 11:59:55;;;;;;;24.45;11.13;;;26.40;63.70;;;;;;4954058;28;20395;-73
2022/06/27 12:02:30;;;;;;;22.27;11.20;;;26.40;63.80;;;;;;4954041;28;20041;-72
2022/06/27 12:05:26;;;;;;;25.50;11.77;;;26.30;63.70;;;;;;4954121;28;20703;-72
2022/06/27 12:08:03;;;;;;;24.02;12.60;;;26.40;63.90;;;;;;4965952;23;20070;-71
2022/06/27 12:13:36;;;;;;;28.30;14.38;;;26.40;65.10;;;;;;4953896;29;20027;-74
2022/06/27 12:16:06;;;;;;;29.58;14.00;;;26.40;64.90;;;;;;4953712;28;20143;-75
2022/06/27 12:18:41;;;;;;;40.08;16.73;;;26.40;63.90;;;;;;4948282;28;20130;-76
2022/06/27 12:21:07;;;;;;;30.55;15.30;;;26.50;65.20;;;;;;4951914;29;20035;-76
2022/06/27 12:23:33;;;;;;;30.77;14.43;;;26.50;65.30;;;;;;4951218;29;20031;-75
2022/06/27 12:25:59;;;;;;;34.92;15.77;;;26.50;65.20;;;;;;4946720;29;20094;-75
2022/06/27 12:28:25;;;;;;;30.55;14.00;;;26.50;65.10;;;;;;4951592;28;20476;-76
2022/06/27 12:30:51;;;;;;;36.47;15.00;;;26.50;65.10;;;;;;4951328;28;20035;-75
2022/06/27 12:33:17;;;;;;;32.80;14.32;;;26.50;65.10;;;;;;4933928;29;20046;-75
2022/06/27 12:35:43;;;;;;;31.70;14.45;;;26.50;65.20;;;;;;4950854;29;20027;-76
2022/06/27 12:38:09;;;;;;;28.98;14.18;;;26.50;65.10;;;;;;4951499;28;20400;-75
2022/06/27 12:40:36;;;;;;;27.67;13.57;;;26.50;65.00;;;;;;4951085;29;20082;-75
2022/06/27 12:43:06;;;;;;;31.13;14.20;;;26.50;65.00;;;;;;4951282;29;20036;-75
2022/06/27 12:45:33;;;;;;;31.17;13.88;;;26.50;65.10;;;;;;4964958;28;20041;-76
2022/06/27 12:48:01;;;;;;;25.48;13.38;;;26.50;65.10;;;;;;4951373;28;20110;-76
2022/06/27 12:50:26;;;;;;;32.75;14.90;;;26.50;65.10;;;;;;4951522;29;20019;-75
2022/06/27 12:52:52;;;;;;;27.08;13.20;;;26.50;65.10;;;;;;4966084;28;20050;-75
2022/06/27 12:55:18;;;;;;;32.78;13.38;;;26.50;65.30;;;;;;4949890;29;20032;-75